Time;durP1;ratioP1;P1;durP2;ratioP2;P2;SDS_P1;SDS_P2;PMS_P1;PMS_P2;Temp;Humidity;BMP_temperature;BMP_pressure;BME280_temperature;BME280_humidity;BME280_pressure;Samples;Min_cycle;Max_cycle;Signal;HPM_P1;HPM_P2
2021/09/02 00:01:37;;;;;;;43.97;30.58;;;17.50;99.90;;;;;;5074959;28;20055;-85
2021/09/02 00:04:03;;;;;;;46.75;31.67;;;17.50;99.90;;;;;;5075213;28;20050;-86
2021/09/02 00:06:29;;;;;;;53.22;34.33;;;17.50;99.90;;;;;;5075332;28;20024;-89
2021/09/02 00:08:54;;;;;;;50.58;33.30;;;17.40;99.90;;;;;;5074712;28;20486;-83
2021/09/02 00:11:20;;;;;;;61.17;40.53;;;17.40;99.90;;;;;;5075266;28;20050;-84
2021/09/02 00:13:46;;;;;;;55.65;37.08;;;17.40;99.90;;;;;;5076246;28;20020;-84
2021/09/02 00:16:11;;;;;;;57.80;37.95;;;17.40;99.90;;;;;;5076783;28;20021;-87
2021/09/02 00:18:37;;;;;;;40.65;29.98;;;17.40;99.90;;;;;;5075912;28;20029;-87
2021/09/02 00:21:03;;;;;;;58.08;37.78;;;17.30;99.90;;;;;;5075350;28;20073;-94
2021/09/02 00:23:28;;;;;;;52.30;34.97;;;17.30;99.90;;;;;;5074924;28;20474;-88
2021/09/02 00:25:54;;;;;;;62.88;38.60;;;17.40;99.90;;;;;;5074328;28;20506;-90
2021/09/02 00:28:20;;;;;;;53.25;36.45;;;17.40;99.90;;;;;;5074603;28;20021;-79
2021/09/02 00:30:46;;;;;;;45.05;31.60;;;17.30;99.90;;;;;;5076141;28;20016;-86
2021/09/02 00:33:18;;;;;;;46.08;32.47;;;17.40;99.90;;;;;;5074322;28;20390;-88
2021/09/02 00:35:45;;;;;;;50.10;33.17;;;17.20;99.90;;;;;;5075646;28;20028;-87
2021/09/02 00:38:11;;;;;;;49.95;35.10;;;17.20;99.90;;;;;;5075909;28;20044;-84
2021/09/02 00:40:37;;;;;;;54.72;35.15;;;17.30;99.90;;;;;;5074337;28;20471;-92
2021/09/02 00:43:03;;;;;;;47.03;32.15;;;17.30;99.90;;;;;;5075507;28;20073;-80
2021/09/02 00:45:28;;;;;;;50.53;33.72;;;17.20;99.90;;;;;;5075712;28;20032;-90
2021/09/02 00:47:54;;;;;;;43.08;30.48;;;17.30;99.90;;;;;;5074048;28;20028;-85
2021/09/02 00:50:20;;;;;;;48.08;32.33;;;17.30;99.90;;;;;;5074406;28;20056;-86
2021/09/02 00:52:45;;;;;;;51.92;33.17;;;17.30;99.90;;;;;;5074466;28;20426;-90
2021/09/02 00:55:11;;;;;;;56.72;36.42;;;17.20;99.90;;;;;;5075238;28;20062;-91
2021/09/02 00:57:37;;;;;;;61.20;36.92;;;17.20;99.90;;;;;;5074073;28;20021;-84
2021/09/02 01:00:09;;;;;;;49.33;33.58;;;17.20;99.90;;;;;;5075571;28;20028;-87
2021/09/02 01:02:35;;;;;;;48.45;32.33;;;17.10;99.90;;;;;;5074140;28;20070;-91
2021/09/02 01:05:02;;;;;;;51.08;33.70;;;17.10;99.90;;;;;;5074033;28;20387;-88
2021/09/02 01:07:29;;;;;;;54.50;32.88;;;17.10;99.90;;;;;;5073740;28;20028;-80
2021/09/02 01:09:57;;;;;;;52.70;33.95;;;17.10;99.90;;;;;;5073531;28;20027;-81
2021/09/02 01:12:37;;;;;;;37.85;27.50;;;17.00;99.90;;;;;;5073625;28;20024;-87
2021/09/02 01:15:12;;;;;;;36.97;26.80;;;17.00;99.90;;;;;;5074083;28;20033;-84
2021/09/02 01:17:46;;;;;;;39.65;28.42;;;17.00;99.90;;;;;;5074757;28;20020;-87
2021/09/02 01:20:17;;;;;;;49.35;30.52;;;17.00;99.90;;;;;;5074151;28;20378;-83
2021/09/02 01:22:48;;;;;;;45.47;29.63;;;17.00;99.90;;;;;;5073999;28;20028;-89
2021/09/02 01:25:17;;;;;;;41.60;27.83;;;17.10;99.90;;;;;;5074495;28;20379;-80
2021/09/02 01:27:49;;;;;;;41.03;28.00;;;17.00;99.90;;;;;;5074240;28;20505;-84
2021/09/02 01:30:15;;;;;;;35.67;25.85;;;17.00;99.90;;;;;;5074967;28;20021;-86
2021/09/02 01:32:44;;;;;;;37.78;25.85;;;17.00;99.90;;;;;;5073246;28;20475;-83
2021/09/02 01:35:11;;;;;;;33.20;24.08;;;17.00;99.90;;;;;;5072906;28;20025;-81
2021/09/02 01:37:46;;;;;;;38.28;27.08;;;17.10;99.90;;;;;;5074111;28;20028;-86
2021/09/02 01:40:19;;;;;;;34.38;24.52;;;17.10;99.90;;;;;;5073262;28;20039;-85
2021/09/02 01:42:45;;;;;;;38.53;25.33;;;17.10;99.90;;;;;;5074503;28;20055;-84
2021/09/02 01:45:11;;;;;;;26.40;20.70;;;17.10;99.90;;;;;;5074468;28;20025;-83
2021/09/02 01:47:37;;;;;;;34.92;24.20;;;17.00;99.90;;;;;;5073252;28;20394;-89
2021/09/02 01:50:23;;;;;;;28.60;21.67;;;17.10;99.90;;;;;;5072401;28;20031;-80
2021/09/02 01:52:51;;;;;;;25.40;18.70;;;17.10;99.90;;;;;;5071620;28;20032;-80
2021/09/02 01:55:17;;;;;;;22.85;16.77;;;17.10;99.90;;;;;;5074141;28;20016;-81
2021/09/02 01:57:43;;;;;;;22.92;16.50;;;17.10;99.90;;;;;;5074016;28;20028;-79
2021/09/02 02:00:11;;;;;;;20.95;14.98;;;17.00;99.90;;;;;;5073609;28;20025;-85
2021/09/02 02:02:38;;;;;;;21.50;15.32;;;17.00;99.90;;;;;;5073311;28;20552;-87
2021/09/02 02:05:04;;;;;;;17.08;13.25;;;17.00;99.90;;;;;;5072973;28;20517;-85
2021/09/02 02:07:30;;;;;;;20.15;14.93;;;17.00;99.90;;;;;;5074961;28;20033;-92
2021/09/02 02:09:56;;;;;;;19.45;13.95;;;17.00;99.90;;;;;;5072383;28;20043;-84
2021/09/02 02:12:21;;;;;;;26.30;15.40;;;17.10;99.90;;;;;;5073717;28;20023;-83
2021/09/02 02:14:47;;;;;;;28.95;16.27;;;17.00;99.90;;;;;;5074267;28;20024;-94
2021/09/02 02:17:13;;;;;;;39.45;16.55;;;17.00;99.90;;;;;;5072479;28;20029;-87
2021/09/02 02:19:38;;;;;;;1.23;0.88;;;16.90;99.90;;;;;;5072905;28;20038;-84
2021/09/02 02:22:05;;;;;;;0.85;0.85;;;16.80;99.90;;;;;;5074569;28;20025;-87
2021/09/02 02:24:31;;;;;;;2.58;0.80;;;16.70;99.90;;;;;;5071993;28;20483;-84
2021/09/02 02:26:57;;;;;;;0.63;0.40;;;16.70;99.90;;;;;;5072924;28;20049;-82
2021/09/02 02:29:22;;;;;;;0.20;0.20;;;16.70;99.90;;;;;;5073556;28;20457;-83
2021/09/02 02:31:48;;;;;;;0.98;0.88;;;16.70;99.90;;;;;;5073021;28;20025;-78
2021/09/02 02:34:14;;;;;;;0.47;0.47;;;16.70;99.90;;;;;;5073594;28;20458;-83
2021/09/02 02:36:40;;;;;;;0.70;0.70;;;16.70;99.90;;;;;;5073494;28;20039;-80
2021/09/02 02:39:06;;;;;;;0.22;0.22;;;16.70;99.90;;;;;;5073747;28;20020;-78
2021/09/02 02:41:32;;;;;;;0.40;0.40;;;16.60;99.90;;;;;;5073286;28;20104;-80
2021/09/02 02:43:58;;;;;;;0.47;0.47;;;16.60;99.90;;;;;;5073396;28;20121;-80
2021/09/02 02:46:23;;;;;;;0.30;0.10;;;16.50;99.90;;;;;;5073617;28;20487;-79
2021/09/02 02:48:49;;;;;;;0.57;0.57;;;16.40;99.90;;;;;;5075737;28;20051;-83
2021/09/02 02:51:15;;;;;;;1.50;1.23;;;16.30;99.90;;;;;;5077494;28;20024;-87
2021/09/02 02:53:40;;;;;;;0.43;0.43;;;16.30;99.90;;;;;;5076238;28;20451;-79
2021/09/02 02:56:06;;;;;;;1.02;0.98;;;16.30;99.90;;;;;;5077633;28;20074;-86
2021/09/02 02:58:32;;;;;;;0.65;0.65;;;16.30;99.90;;;;;;5076055;28;20050;-90
2021/09/02 03:00:58;;;;;;;0.20;0.20;;;16.20;99.90;;;;;;5075901;28;20028;-85
2021/09/02 03:03:23;;;;;;;0.50;0.50;;;16.20;99.90;;;;;;5077479;28;20108;-83
2021/09/02 03:05:49;;;;;;;0.30;0.30;;;16.20;99.90;;;;;;5075797;28;20021;-80
2021/09/02 03:08:15;;;;;;;0.05;0.05;;;16.10;99.90;;;;;;5077426;28;20091;-85
2021/09/02 03:10:41;;;;;;;0.22;0.22;;;16.10;99.90;;;;;;5076683;28;20403;-84
2021/09/02 03:13:06;;;;;;;0.43;0.43;;;16.10;99.90;;;;;;5075430;28;20028;-82
2021/09/02 03:15:33;;;;;;;0.70;0.63;;;16.20;99.90;;;;;;5076650;28;20535;-83
2021/09/02 03:17:59;;;;;;;0.77;0.77;;;16.20;99.90;;;;;;5075009;28;20371;-81
